createdAt,value
2023-03-07T00:02:07.727Z,11.70
2023-03-07T00:04:35.056Z,12.75
2023-03-07T00:07:02.428Z,9.30
2023-03-07T00:09:29.742Z,9.45
2023-03-07T00:11:57.112Z,10.57
2023-03-07T00:14:24.404Z,10.98
2023-03-07T00:16:51.965Z,10.90
2023-03-07T00:19:20.660Z,11.82
2023-03-07T00:21:47.962Z,9.52
2023-03-07T00:24:15.295Z,6.20
2023-03-07T00:26:42.609Z,8.38
2023-03-07T00:29:10.590Z,8.15
2023-03-07T00:31:38.167Z,8.63
2023-03-07T00:34:05.923Z,9.15
2023-03-07T00:36:34.627Z,9.65
2023-03-07T00:39:01.948Z,9.13
2023-03-07T00:41:29.443Z,9.00
2023-03-07T00:43:56.982Z,9.98
2023-03-07T00:46:25.737Z,8.73
2023-03-07T00:48:53.425Z,10.70
2023-03-07T00:51:21.511Z,8.63
2023-03-07T00:53:50.524Z,8.73
2023-03-07T00:56:18.948Z,6.95
2023-03-07T00:58:46.793Z,6.63
2023-03-07T01:01:15.651Z,9.57
2023-03-07T01:03:43.398Z,6.88
2023-03-07T01:06:12.719Z,9.18
2023-03-07T01:08:40.039Z,8.10
2023-03-07T01:11:09.029Z,6.28
2023-03-07T01:13:37.058Z,7.47
2023-03-07T01:16:08.040Z,6.32
2023-03-07T01:18:35.408Z,8.45
2023-03-07T01:21:02.736Z,8.90
2023-03-07T01:23:30.061Z,8.38
2023-03-07T01:25:57.328Z,6.38
2023-03-07T01:28:26.013Z,6.70
2023-03-07T01:30:57.926Z,8.35
2023-03-07T01:33:25.299Z,6.97
2023-03-07T01:35:52.738Z,7.50
2023-03-07T01:38:20.102Z,7.93
2023-03-07T01:40:47.418Z,5.75
2023-03-07T01:43:22.562Z,7.45
2023-03-07T01:46:21.289Z,7.38
2023-03-07T01:48:50.445Z,7.38
2023-03-07T01:51:18.189Z,9.15
2023-03-07T01:53:46.477Z,6.05
2023-03-07T01:56:14.018Z,9.48
2023-03-07T01:58:41.351Z,7.93
2023-03-07T02:01:09.943Z,8.00
2023-03-07T02:03:40.062Z,6.85
2023-03-07T02:06:09.702Z,8.55
2023-03-07T02:08:37.956Z,8.98
2023-03-07T02:11:05.487Z,9.50
2023-03-07T02:13:36.243Z,9.18
2023-03-07T02:16:04.288Z,7.28
2023-03-07T02:18:32.950Z,10.05
2023-03-07T02:21:09.180Z,9.15
2023-03-07T02:23:39.194Z,9.48
2023-03-07T02:26:08.686Z,11.63
2023-03-07T02:28:39.812Z,10.13
2023-03-07T02:31:08.118Z,8.55
2023-03-07T02:33:35.615Z,12.88
2023-03-07T02:36:04.370Z,9.60
2023-03-07T02:38:36.170Z,11.27
2023-03-07T02:41:03.600Z,11.38
2023-03-07T02:43:30.912Z,10.38
2023-03-07T02:45:59.626Z,10.77
2023-03-07T02:48:26.951Z,11.38
2023-03-07T02:50:54.288Z,9.27
2023-03-07T02:53:21.625Z,9.25
2023-03-07T02:55:48.947Z,10.77
2023-03-07T02:58:16.358Z,11.20
2023-03-07T03:00:43.764Z,9.65
2023-03-07T03:03:12.829Z,9.77
2023-03-07T03:05:40.132Z,12.57
2023-03-07T03:08:07.789Z,9.68
2023-03-07T03:10:35.108Z,10.43
2023-03-07T03:13:02.444Z,8.00
2023-03-07T03:15:29.759Z,11.18
2023-03-07T03:17:57.103Z,11.60
2023-03-07T03:20:27.037Z,8.82
2023-03-07T03:22:54.425Z,11.20
2023-03-07T03:25:23.124Z,11.02
2023-03-07T03:27:51.025Z,7.63
2023-03-07T03:30:18.502Z,11.18
2023-03-07T03:32:47.008Z,11.88
2023-03-07T03:35:14.450Z,9.20
2023-03-07T03:37:43.128Z,10.30
2023-03-07T03:40:14.344Z,10.98
2023-03-07T03:42:42.603Z,10.60
2023-03-07T03:45:10.754Z,13.57
2023-03-07T03:47:38.122Z,10.90
2023-03-07T03:50:05.826Z,12.45
2023-03-07T03:52:33.302Z,11.80
2023-03-07T03:55:01.930Z,10.02
2023-03-07T03:57:29.208Z,15.88
2023-03-07T03:59:56.600Z,9.88
2023-03-07T04:02:24.090Z,12.65
2023-03-07T04:04:51.427Z,13.68
2023-03-07T04:07:18.751Z,12.57
2023-03-07T04:09:46.180Z,13.10
2023-03-07T04:12:14.926Z,14.90
2023-03-07T04:14:42.311Z,15.23
2023-03-07T04:17:09.624Z,13.05
2023-03-07T04:19:36.979Z,11.77
2023-03-07T04:22:04.376Z,11.98
2023-03-07T04:24:31.694Z,15.75
2023-03-07T04:26:58.961Z,10.68
2023-03-07T04:29:27.635Z,17.95
2023-03-07T04:31:54.942Z,17.25
2023-03-07T04:34:22.304Z,17.25
2023-03-07T04:36:49.578Z,11.65
2023-03-07T04:39:16.881Z,14.73
2023-03-07T04:41:44.164Z,14.27
2023-03-07T04:44:11.520Z,17.17
2023-03-07T04:46:40.444Z,13.60
2023-03-07T04:49:07.794Z,17.65
2023-03-07T04:51:35.082Z,14.40
2023-03-07T04:54:02.391Z,17.20
2023-03-07T04:56:29.683Z,18.60
2023-03-07T04:58:57.011Z,19.45
2023-03-07T05:01:24.437Z,16.90
2023-03-07T05:03:53.173Z,12.25
2023-03-07T05:06:20.473Z,20.17
2023-03-07T05:08:47.820Z,16.35
2023-03-07T05:11:15.165Z,14.98
2023-03-07T05:13:42.479Z,17.25
2023-03-07T05:16:09.889Z,18.25
2023-03-07T05:18:37.304Z,18.42
2023-03-07T05:21:06.255Z,16.45
2023-03-07T05:23:33.549Z,18.60
2023-03-07T05:26:00.840Z,22.27
2023-03-07T05:28:28.149Z,27.08
2023-03-07T05:30:55.495Z,18.60
2023-03-07T05:33:22.881Z,22.15
2023-03-07T05:35:50.337Z,18.20
2023-03-07T05:38:19.008Z,17.75
2023-03-07T05:40:46.299Z,14.80
2023-03-07T05:43:13.709Z,19.48
2023-03-07T05:45:41.095Z,19.85
2023-03-07T05:48:08.429Z,13.30
2023-03-07T05:50:35.723Z,16.25
2023-03-07T05:53:03.487Z,18.38
2023-03-07T05:55:32.132Z,10.48
2023-03-07T05:57:59.435Z,19.60
2023-03-07T06:00:26.826Z,19.70
2023-03-07T06:02:54.209Z,18.85
2023-03-07T06:05:22.797Z,21.05
2023-03-07T06:07:51.078Z,20.75
2023-03-07T06:10:18.537Z,18.60
2023-03-07T06:12:49.755Z,21.20
2023-03-07T06:15:17.118Z,20.92
2023-03-07T06:17:44.408Z,17.90
2023-03-07T06:20:12.750Z,20.73
2023-03-07T06:22:40.170Z,21.95
2023-03-07T06:25:08.459Z,19.17
2023-03-07T06:27:36.172Z,19.20
2023-03-07T06:30:06.464Z,20.63
2023-03-07T06:32:33.952Z,22.20
2023-03-07T06:35:01.263Z,14.95
2023-03-07T06:37:28.617Z,21.35
2023-03-07T06:39:56.309Z,18.00
2023-03-07T06:42:23.708Z,22.35
2023-03-07T06:44:51.362Z,17.27
2023-03-07T06:47:20.068Z,21.58
2023-03-07T06:49:47.362Z,21.65
2023-03-07T06:52:14.799Z,20.13
2023-03-07T06:54:42.110Z,16.95
2023-03-07T07:00:41.167Z,15.82
2023-03-07T07:03:10.636Z,18.17
2023-03-07T07:05:38.010Z,19.02
2023-03-07T07:08:05.394Z,12.23
2023-03-07T07:10:32.700Z,17.33
2023-03-07T07:13:00.006Z,16.88
2023-03-07T07:15:27.399Z,14.20
2023-03-07T07:17:54.703Z,15.80
2023-03-07T07:20:23.319Z,14.90
2023-03-07T07:22:50.835Z,18.00
2023-03-07T07:25:18.304Z,13.27
2023-03-07T07:27:45.658Z,15.75
2023-03-07T07:30:13.766Z,13.15
2023-03-07T07:32:41.310Z,12.85
2023-03-07T07:35:09.380Z,13.88
2023-03-07T07:37:37.979Z,11.52
2023-03-07T07:40:05.979Z,13.93
2023-03-07T07:42:33.276Z,14.93
2023-03-07T07:45:00.572Z,10.98
2023-03-07T07:47:27.909Z,11.38
2023-03-07T07:49:55.338Z,10.30
2023-03-07T07:52:22.654Z,10.13
2023-03-07T07:54:51.409Z,9.50
2023-03-07T07:57:19.059Z,11.82
2023-03-07T07:59:46.952Z,10.93
2023-03-07T08:02:14.438Z,10.57
2023-03-07T08:04:41.740Z,13.07
2023-03-07T08:07:09.122Z,11.98
2023-03-07T08:09:36.476Z,11.38
2023-03-07T08:12:05.386Z,10.27
2023-03-07T08:14:34.035Z,12.15
2023-03-07T08:17:04.348Z,10.88
2023-03-07T08:19:31.741Z,9.88
2023-03-07T08:21:59.398Z,9.18
2023-03-07T08:24:39.770Z,8.68
2023-03-07T08:27:09.086Z,7.15
2023-03-07T08:29:36.384Z,9.25
2023-03-07T08:32:03.814Z,6.20
2023-03-07T08:34:33.037Z,9.80
2023-03-07T08:37:00.393Z,6.53
2023-03-07T08:39:27.780Z,9.05
2023-03-07T08:41:56.764Z,10.32
2023-03-07T08:44:25.589Z,8.00
2023-03-07T08:46:52.887Z,8.77
2023-03-07T08:49:20.176Z,7.03
2023-03-07T08:51:47.751Z,8.55
2023-03-07T08:54:15.238Z,8.65
2023-03-07T08:56:42.546Z,8.68
2023-03-07T08:59:09.909Z,9.88
2023-03-07T09:01:41.073Z,8.48
2023-03-07T09:04:08.559Z,8.10
2023-03-07T09:06:35.862Z,7.72
2023-03-07T09:09:03.172Z,8.85
2023-03-07T09:11:30.480Z,10.10
2023-03-07T09:13:57.914Z,7.43
2023-03-07T09:16:27.201Z,10.18
2023-03-07T09:18:55.868Z,11.52
2023-03-07T09:21:23.488Z,9.75
2023-03-07T09:23:50.821Z,11.68
2023-03-07T09:26:18.229Z,8.95
2023-03-07T09:28:45.531Z,8.82
2023-03-07T09:31:14.641Z,11.98
2023-03-07T09:33:42.517Z,9.82
2023-03-07T09:36:12.323Z,11.77
2023-03-07T09:38:39.893Z,12.48
2023-03-07T09:41:09.194Z,9.00
2023-03-07T09:43:41.947Z,13.60
2023-03-07T09:46:12.923Z,16.08
2023-03-07T09:48:50.147Z,13.98
2023-03-07T09:51:19.959Z,11.50
2023-03-07T09:53:48.419Z,13.93
2023-03-07T09:56:17.731Z,12.45
2023-03-07T09:58:48.697Z,11.48
2023-03-07T10:01:16.506Z,14.93
2023-03-07T10:03:47.567Z,10.52
2023-03-07T10:06:16.301Z,12.35
2023-03-07T10:08:44.919Z,12.30
2023-03-07T10:11:18.960Z,14.13
2023-03-07T10:13:53.960Z,9.73
2023-03-07T10:16:23.994Z,11.80
2023-03-07T10:19:00.624Z,9.77
2023-03-07T10:21:34.249Z,10.85
2023-03-07T10:24:19.600Z,10.43
2023-03-07T10:26:51.096Z,8.30
2023-03-07T10:29:19.514Z,8.63
2023-03-07T10:31:48.699Z,10.80
2023-03-07T10:34:26.349Z,11.00
2023-03-07T10:37:08.124Z,10.93
2023-03-07T10:39:40.289Z,9.57
2023-03-07T10:42:11.743Z,11.15
2023-03-07T10:44:39.048Z,10.65
2023-03-07T10:47:06.751Z,12.45
2023-03-07T10:49:37.546Z,11.07
2023-03-07T10:52:07.310Z,10.43
2023-03-07T10:54:35.786Z,11.38
2023-03-07T10:57:07.824Z,11.93
2023-03-07T10:59:36.867Z,9.35
2023-03-07T11:02:05.757Z,13.20
2023-03-07T11:04:43.923Z,13.05
2023-03-07T11:07:24.787Z,13.70
2023-03-07T11:09:52.216Z,10.68
2023-03-07T11:12:20.839Z,16.38
2023-03-07T11:14:50.391Z,15.20
2023-03-07T11:17:19.916Z,16.88
2023-03-07T11:19:47.793Z,15.18
2023-03-07T11:22:20.334Z,15.38
2023-03-07T11:24:49.220Z,14.05
2023-03-07T11:27:21.703Z,14.07
2023-03-07T11:30:05.967Z,15.02
2023-03-07T11:32:34.863Z,16.77
2023-03-07T11:35:05.093Z,16.73
2023-03-07T11:37:35.117Z,14.63
2023-03-07T11:40:19.662Z,15.52
2023-03-07T11:42:50.294Z,16.77
2023-03-07T11:45:26.298Z,15.77
2023-03-07T11:47:58.688Z,15.25
2023-03-07T11:50:27.320Z,14.90
2023-03-07T11:53:09.555Z,15.38
2023-03-07T11:55:39.120Z,17.13
2023-03-07T11:58:20.386Z,15.25
2023-03-07T12:00:54.105Z,17.38
2023-03-07T12:03:31.296Z,19.33
2023-03-07T12:06:14.947Z,14.90
2023-03-07T12:08:49.122Z,17.90
2023-03-07T12:11:21.641Z,16.42
2023-03-07T12:13:54.629Z,18.23
2023-03-07T12:16:27.449Z,17.08
2023-03-07T12:19:03.969Z,20.83
2023-03-07T12:21:57.906Z,23.63
2023-03-07T12:24:26.988Z,21.13
2023-03-07T12:26:57.141Z,21.10
2023-03-07T12:29:32.288Z,24.85
2023-03-07T12:32:02.703Z,20.60
2023-03-07T12:34:32.453Z,18.02
2023-03-07T12:37:03.675Z,15.85
2023-03-07T12:39:33.555Z,16.45
2023-03-07T12:42:02.753Z,13.73
2023-03-07T12:44:36.664Z,13.75
2023-03-07T12:47:09.818Z,13.77
2023-03-07T12:49:49.174Z,16.35
2023-03-07T12:52:30.641Z,13.95
2023-03-07T12:55:00.717Z,14.25
2023-03-07T12:57:29.818Z,12.82
2023-03-07T12:59:59.310Z,15.07
2023-03-07T13:02:29.563Z,18.65
2023-03-07T13:04:57.777Z,17.45
2023-03-07T13:07:26.418Z,19.65
2023-03-07T13:09:54.620Z,20.35
2023-03-07T13:12:31.130Z,20.88
2023-03-07T13:14:59.092Z,20.65
2023-03-07T13:17:45.039Z,16.77
2023-03-07T13:20:27.282Z,16.42
2023-03-07T13:23:00.814Z,17.77
2023-03-07T13:25:48.723Z,14.40
2023-03-07T13:28:34.426Z,16.20
2023-03-07T13:31:12.490Z,16.00
2023-03-07T13:33:39.835Z,15.85
2023-03-07T13:36:29.728Z,16.52
2023-03-07T13:38:58.416Z,16.42
2023-03-07T13:41:40.671Z,14.85
2023-03-07T13:44:26.324Z,14.75
2023-03-07T13:46:55.624Z,15.55
2023-03-07T13:49:36.355Z,18.23
2023-03-07T13:52:22.122Z,14.60
2023-03-07T13:54:51.806Z,14.05
2023-03-07T13:57:19.858Z,11.70
2023-03-07T13:59:48.689Z,9.35
2023-03-07T14:02:17.710Z,7.40
2023-03-07T14:04:46.384Z,5.95
2023-03-07T14:07:21.213Z,5.68
2023-03-07T14:09:49.766Z,5.75
2023-03-07T14:12:22.319Z,4.95
2023-03-07T14:14:56.029Z,7.47
2023-03-07T14:17:28.574Z,6.40
2023-03-07T14:20:00.131Z,5.70
2023-03-07T14:22:34.363Z,6.85
2023-03-07T14:25:25.485Z,6.43
2023-03-07T14:27:55.359Z,7.03
2023-03-07T14:30:23.169Z,7.93
2023-03-07T14:32:51.861Z,6.47
2023-03-07T14:35:33.687Z,8.77
2023-03-07T14:38:01.138Z,8.20
2023-03-07T14:40:32.586Z,8.88
2023-03-07T14:43:08.615Z,9.90
2023-03-07T14:45:39.473Z,9.50
2023-03-07T14:48:16.009Z,9.93
2023-03-07T14:50:44.779Z,8.85
2023-03-07T14:53:17.560Z,9.15
2023-03-07T14:55:46.067Z,9.55
2023-03-07T14:58:18.692Z,12.80
2023-03-07T15:00:46.307Z,9.98
2023-03-07T15:03:14.868Z,10.98
2023-03-07T15:05:49.450Z,11.10
2023-03-07T15:10:45.895Z,12.80
2023-03-07T15:13:18.189Z,10.13
2023-03-07T15:15:49.264Z,10.98
2023-03-07T15:18:19.802Z,10.88
2023-03-07T15:20:47.538Z,11.50
2023-03-07T15:23:19.692Z,18.85
2023-03-07T15:25:47.407Z,12.52
2023-03-07T15:28:18.003Z,14.40
2023-03-07T15:30:49.560Z,14.00
2023-03-07T15:33:23.077Z,10.82
2023-03-07T15:36:05.338Z,8.82
2023-03-07T15:38:33.501Z,14.98
2023-03-07T15:41:01.062Z,13.55
2023-03-07T15:43:29.196Z,17.80
2023-03-07T15:46:02.536Z,16.65
2023-03-07T15:48:34.929Z,18.50
2023-03-07T15:51:06.218Z,17.02
2023-03-07T15:53:35.129Z,17.77
2023-03-07T15:56:03.831Z,13.13
2023-03-07T15:58:31.444Z,12.52
2023-03-07T16:01:07.657Z,13.65
2023-03-07T16:03:35.316Z,14.40
2023-03-07T16:06:02.724Z,17.88
2023-03-07T16:08:30.147Z,17.85
2023-03-07T16:10:59.868Z,17.48
2023-03-07T16:13:28.674Z,17.75
2023-03-07T16:15:59.720Z,17.17
2023-03-07T16:18:29.462Z,18.60
2023-03-07T16:20:56.826Z,19.77
2023-03-07T16:23:24.351Z,23.75
2023-03-07T16:25:51.650Z,20.58
2023-03-07T16:28:18.996Z,24.65
2023-03-07T16:30:46.464Z,20.83
2023-03-07T16:33:14.430Z,21.48
2023-03-07T16:35:46.087Z,19.65
2023-03-07T16:38:13.589Z,20.10
2023-03-07T16:40:42.309Z,19.27
2023-03-07T16:43:24.681Z,24.35
2023-03-07T16:45:51.995Z,24.48
2023-03-07T16:48:19.358Z,25.60
2023-03-07T16:50:48.104Z,25.90
2023-03-07T16:53:16.321Z,27.55
2023-03-07T16:55:43.966Z,23.80
2023-03-07T16:58:17.991Z,17.73
2023-03-07T17:00:45.310Z,18.42
2023-03-07T17:03:12.653Z,20.98
2023-03-07T17:05:40.017Z,15.55
2023-03-07T17:08:09.159Z,15.88
2023-03-07T17:10:37.243Z,18.65
2023-03-07T17:13:06.118Z,17.85
2023-03-07T17:15:33.649Z,18.60
2023-03-07T17:18:01.600Z,20.30
2023-03-07T17:20:29.159Z,21.30
2023-03-07T17:22:56.484Z,20.33
2023-03-07T17:25:25.323Z,20.73
2023-03-07T17:27:54.392Z,22.75
2023-03-07T17:30:22.672Z,25.92
2023-03-07T17:32:50.081Z,21.75
2023-03-07T17:35:17.772Z,24.23
2023-03-07T17:37:46.158Z,26.13
2023-03-07T17:40:13.958Z,30.65
2023-03-07T17:42:43.311Z,37.47
2023-03-07T17:45:12.075Z,25.23
2023-03-07T17:47:39.532Z,33.80
2023-03-07T17:50:07.555Z,33.35
2023-03-07T17:52:34.902Z,29.98
2023-03-07T17:55:02.398Z,29.48
2023-03-07T17:57:29.780Z,32.78
2023-03-07T17:59:58.458Z,31.13
2023-03-07T18:02:25.897Z,36.42
2023-03-07T18:04:53.264Z,30.30
2023-03-07T18:07:20.546Z,33.08
2023-03-07T18:09:53.633Z,37.17
2023-03-07T18:12:30.081Z,38.80
2023-03-07T18:14:58.731Z,34.55
2023-03-07T18:17:26.961Z,41.40
2023-03-07T18:19:56.885Z,38.83
2023-03-07T18:22:24.271Z,37.15
2023-03-07T18:24:53.144Z,39.25
2023-03-07T18:27:20.460Z,71.85
2023-03-07T18:29:47.740Z,34.75
2023-03-07T18:32:16.400Z,41.67
2023-03-07T18:34:43.698Z,34.13
2023-03-07T18:37:11.304Z,43.80
2023-03-07T18:39:38.820Z,44.53
2023-03-07T18:42:06.190Z,43.13
2023-03-07T18:44:33.632Z,39.20
2023-03-07T18:47:01.049Z,35.83
2023-03-07T18:49:29.731Z,41.15
2023-03-07T18:51:57.004Z,38.53
2023-03-07T18:54:24.464Z,25.35
2023-03-07T18:56:51.784Z,41.97
2023-03-07T18:59:19.295Z,39.17
2023-03-07T19:01:49.970Z,39.40
2023-03-07T19:04:17.796Z,39.53
2023-03-07T19:06:47.482Z,36.78
2023-03-07T19:09:15.605Z,39.50
2023-03-07T19:11:42.971Z,78.88
2023-03-07T19:14:10.375Z,36.28
2023-03-07T19:16:37.866Z,38.05
2023-03-07T19:19:05.195Z,39.20
2023-03-07T19:21:32.818Z,37.42
2023-03-07T19:24:03.756Z,35.15
2023-03-07T19:26:31.213Z,34.67
2023-03-07T19:28:58.571Z,32.28
2023-03-07T19:31:26.977Z,36.75
2023-03-07T19:33:54.645Z,39.08
2023-03-07T19:36:24.620Z,39.20
2023-03-07T19:38:54.400Z,40.35
2023-03-07T19:41:23.880Z,44.60
2023-03-07T19:43:51.183Z,45.63
2023-03-07T19:46:19.841Z,45.45
2023-03-07T19:48:47.624Z,44.63
2023-03-07T19:51:15.652Z,46.13
2023-03-07T19:53:43.088Z,42.38
2023-03-07T19:56:10.954Z,42.30
2023-03-07T19:58:39.930Z,42.47
2023-03-07T20:01:07.781Z,40.00
2023-03-07T20:03:35.176Z,31.13
2023-03-07T20:06:02.715Z,37.83
2023-03-07T20:08:33.181Z,32.90
2023-03-07T20:11:13.296Z,30.55
2023-03-07T20:13:45.435Z,35.33
2023-03-07T20:16:13.312Z,30.45
2023-03-07T20:18:40.808Z,32.72
2023-03-07T20:21:09.196Z,36.13
2023-03-07T20:23:36.801Z,90.20
2023-03-07T20:26:05.331Z,41.33
2023-03-07T20:28:34.176Z,37.33
2023-03-07T20:31:03.975Z,31.63
2023-03-07T20:33:31.362Z,34.85
2023-03-07T20:36:03.527Z,38.08
2023-03-07T20:38:31.114Z,36.60
2023-03-07T20:41:03.319Z,48.33
2023-03-07T20:43:34.158Z,27.48
2023-03-07T20:46:07.546Z,24.25
2023-03-07T20:48:34.881Z,19.58
2023-03-07T20:51:09.972Z,25.33
2023-03-07T20:53:37.360Z,23.63
2023-03-07T20:56:05.196Z,21.30
2023-03-07T20:58:33.006Z,16.52
2023-03-07T21:01:00.446Z,38.15
2023-03-07T21:03:29.433Z,80.20
2023-03-07T21:05:57.658Z,22.00
2023-03-07T21:08:25.259Z,18.70
2023-03-07T21:10:58.470Z,20.23
2023-03-07T21:13:25.795Z,20.35
2023-03-07T21:15:53.641Z,22.30
2023-03-07T21:18:21.214Z,19.92
2023-03-07T21:20:50.056Z,21.55
2023-03-07T21:23:17.396Z,23.40
2023-03-07T21:25:46.508Z,21.90
2023-03-07T21:28:14.069Z,19.67
2023-03-07T21:30:41.590Z,17.60
2023-03-07T21:33:08.956Z,20.42
2023-03-07T21:35:37.284Z,14.32
2023-03-07T21:38:07.159Z,21.92
2023-03-07T21:40:34.977Z,14.05
2023-03-07T21:43:02.270Z,16.17
2023-03-07T21:45:32.372Z,15.05
2023-03-07T21:47:59.759Z,15.73
2023-03-07T21:50:27.531Z,18.20
2023-03-07T21:52:54.908Z,16.05
2023-03-07T21:55:24.717Z,13.48
2023-03-07T21:57:52.071Z,15.77
2023-03-07T22:00:20.547Z,17.42
2023-03-07T22:02:47.914Z,22.00
2023-03-07T22:05:15.441Z,10.82
2023-03-07T22:07:42.752Z,15.50
2023-03-07T22:10:11.071Z,17.13
2023-03-07T22:12:39.711Z,15.77
2023-03-07T22:15:07.751Z,20.25
2023-03-07T22:17:35.142Z,21.60
2023-03-07T22:20:02.511Z,17.02
2023-03-07T22:22:29.893Z,14.55
2023-03-07T22:24:57.179Z,18.40
2023-03-07T22:27:24.526Z,22.65
2023-03-07T22:29:53.167Z,15.43
2023-03-07T22:32:20.470Z,34.75
2023-03-07T22:34:47.776Z,39.90
2023-03-07T22:37:15.167Z,37.90
2023-03-07T22:39:42.485Z,23.08
2023-03-07T22:42:09.899Z,55.85
2023-03-07T22:44:37.451Z,43.17
2023-03-07T22:47:06.532Z,46.63
2023-03-07T22:49:33.991Z,25.23
2023-03-07T22:52:01.276Z,29.58
2023-03-07T22:54:28.850Z,32.20
2023-03-07T22:56:56.168Z,39.30
2023-03-07T22:59:23.460Z,24.85
2023-03-07T23:01:52.040Z,49.75
2023-03-07T23:04:20.770Z,32.78
2023-03-07T23:06:48.068Z,14.38
2023-03-07T23:09:15.413Z,18.65
2023-03-07T23:11:47.742Z,12.02
2023-03-07T23:14:15.052Z,16.55
2023-03-07T23:16:42.945Z,16.63
2023-03-07T23:19:10.221Z,21.00
2023-03-07T23:21:38.869Z,13.07
2023-03-07T23:24:06.667Z,14.32
2023-03-07T23:26:34.692Z,10.35
2023-03-07T23:29:02.567Z,12.98
2023-03-07T23:31:30.832Z,15.60
2023-03-07T23:33:58.502Z,11.82
2023-03-07T23:36:26.379Z,19.80
2023-03-07T23:38:55.164Z,16.85
2023-03-07T23:41:22.716Z,15.13
2023-03-07T23:43:51.372Z,19.90
2023-03-07T23:46:18.850Z,14.00
2023-03-07T23:48:46.367Z,18.25
2023-03-07T23:51:13.877Z,15.10
2023-03-07T23:53:41.306Z,14.18
2023-03-07T23:56:10.310Z,12.20
2023-03-07T23:58:38.006Z,15.40
